Aviation Digital Data Service (ADDS)

Output produced by METARs form (1630 UTC 23 February 2017)
found at http://aviationweather.gov/adds/metars/
 
KAGC 231127Z 2312/2412 20008KT P6SM SCT005 BKN015 
     TEMPO 2312/2314 BKN005 
     FM231700 22010KT P6SM BKN025 
     FM240600 17005KT P6SM BKN060